sensor_id;sensor_type;location;lat;lon;timestamp;P1;durP1;ratioP1;P2;durP2;ratioP2
11642;SDS011;5877;50.930;6.918;2022-07-10T00:02:05;3.47;;;1.60;;
11642;SDS011;5877;50.930;6.918;2022-07-10T00:04:52;3.27;;;1.50;;
11642;SDS011;5877;50.930;6.918;2022-07-10T00:07:40;3.10;;;1.27;;
11642;SDS011;5877;50.930;6.918;2022-07-10T00:10:27;5.93;;;1.30;;
11642;SDS011;5877;50.930;6.918;2022-07-10T00:13:15;4.90;;;1.60;;
11642;SDS011;5877;50.930;6.918;2022-07-10T00:16:03;4.27;;;1.40;;
11642;SDS011;5877;50.930;6.918;2022-07-10T00:18:51;5.50;;;1.70;;
11642;SDS011;5877;50.930;6.918;2022-07-10T00:21:38;5.73;;;2.30;;
11642;SDS011;5877;50.930;6.918;2022-07-10T00:24:26;4.27;;;1.70;;
11642;SDS011;5877;50.930;6.918;2022-07-10T00:27:13;2.93;;;1.80;;
11642;SDS011;5877;50.930;6.918;2022-07-10T00:30:00;3.90;;;1.43;;
11642;SDS011;5877;50.930;6.918;2022-07-10T00:32:48;3.63;;;1.37;;
11642;SDS011;5877;50.930;6.918;2022-07-10T00:35:36;3.00;;;1.50;;
11642;SDS011;5877;50.930;6.918;2022-07-10T00:38:23;2.83;;;1.30;;
11642;SDS011;5877;50.930;6.918;2022-07-10T00:41:11;3.67;;;1.23;;
11642;SDS011;5877;50.930;6.918;2022-07-10T00:43:59;4.43;;;1.37;;
11642;SDS011;5877;50.930;6.918;2022-07-10T00:46:47;2.30;;;1.07;;
11642;SDS011;5877;50.930;6.918;2022-07-10T00:49:35;3.73;;;1.50;;
11642;SDS011;5877;50.930;6.918;2022-07-10T00:52:24;5.00;;;1.50;;
11642;SDS011;5877;50.930;6.918;2022-07-10T00:55:11;2.87;;;1.10;;
11642;SDS011;5877;50.930;6.918;2022-07-10T00:58:00;4.70;;;1.20;;
11642;SDS011;5877;50.930;6.918;2022-07-10T01:00:48;4.80;;;1.67;;
11642;SDS011;5877;50.930;6.918;2022-07-10T01:03:35;1.87;;;1.10;;
11642;SDS011;5877;50.930;6.918;2022-07-10T01:06:23;4.00;;;1.47;;
11642;SDS011;5877;50.930;6.918;2022-07-10T01:09:10;4.67;;;1.30;;
11642;SDS011;5877;50.930;6.918;2022-07-10T01:11:59;5.63;;;1.30;;
11642;SDS011;5877;50.930;6.918;2022-07-10T01:14:47;3.67;;;1.10;;
11642;SDS011;5877;50.930;6.918;2022-07-10T01:17:50;5.43;;;1.20;;
11642;SDS011;5877;50.930;6.918;2022-07-10T01:20:41;3.40;;;1.20;;
11642;SDS011;5877;50.930;6.918;2022-07-10T01:23:28;3.37;;;1.20;;
11642;SDS011;5877;50.930;6.918;2022-07-10T01:26:15;5.40;;;1.50;;
11642;SDS011;5877;50.930;6.918;2022-07-10T01:29:04;2.73;;;1.30;;
11642;SDS011;5877;50.930;6.918;2022-07-10T01:31:52;4.37;;;1.40;;
11642;SDS011;5877;50.930;6.918;2022-07-10T01:34:43;5.53;;;1.60;;
11642;SDS011;5877;50.930;6.918;2022-07-10T01:37:31;3.50;;;1.33;;
11642;SDS011;5877;50.930;6.918;2022-07-10T01:40:18;2.13;;;1.13;;
11642;SDS011;5877;50.930;6.918;2022-07-10T01:43:05;5.07;;;1.30;;
11642;SDS011;5877;50.930;6.918;2022-07-10T01:45:53;2.63;;;1.20;;
11642;SDS011;5877;50.930;6.918;2022-07-10T01:48:40;6.03;;;1.50;;
11642;SDS011;5877;50.930;6.918;2022-07-10T01:51:28;5.80;;;1.50;;
11642;SDS011;5877;50.930;6.918;2022-07-10T01:54:16;5.83;;;1.40;;
11642;SDS011;5877;50.930;6.918;2022-07-10T01:57:03;3.57;;;1.17;;
11642;SDS011;5877;50.930;6.918;2022-07-10T01:59:51;2.83;;;1.20;;
11642;SDS011;5877;50.930;6.918;2022-07-10T02:02:39;2.60;;;1.00;;
11642;SDS011;5877;50.930;6.918;2022-07-10T02:05:26;2.23;;;0.80;;
11642;SDS011;5877;50.930;6.918;2022-07-10T02:08:14;7.53;;;1.40;;
11642;SDS011;5877;50.930;6.918;2022-07-10T02:11:01;3.37;;;1.40;;
11642;SDS011;5877;50.930;6.918;2022-07-10T02:13:48;3.77;;;1.43;;
11642;SDS011;5877;50.930;6.918;2022-07-10T02:16:36;4.30;;;1.13;;
11642;SDS011;5877;50.930;6.918;2022-07-10T02:19:23;3.27;;;0.97;;
11642;SDS011;5877;50.930;6.918;2022-07-10T02:22:10;3.33;;;1.13;;
11642;SDS011;5877;50.930;6.918;2022-07-10T02:24:58;2.57;;;1.10;;
11642;SDS011;5877;50.930;6.918;2022-07-10T02:27:45;3.43;;;1.13;;
11642;SDS011;5877;50.930;6.918;2022-07-10T02:30:32;4.37;;;1.03;;
11642;SDS011;5877;50.930;6.918;2022-07-10T02:33:20;3.37;;;1.30;;
11642;SDS011;5877;50.930;6.918;2022-07-10T02:36:07;4.57;;;1.60;;
11642;SDS011;5877;50.930;6.918;2022-07-10T02:38:55;7.03;;;1.47;;
11642;SDS011;5877;50.930;6.918;2022-07-10T02:41:42;4.13;;;1.13;;
11642;SDS011;5877;50.930;6.918;2022-07-10T02:44:29;3.57;;;1.47;;
11642;SDS011;5877;50.930;6.918;2022-07-10T02:47:17;4.43;;;1.20;;
11642;SDS011;5877;50.930;6.918;2022-07-10T02:50:05;2.70;;;1.20;;
11642;SDS011;5877;50.930;6.918;2022-07-10T02:52:53;4.20;;;1.20;;
11642;SDS011;5877;50.930;6.918;2022-07-10T02:55:41;2.17;;;0.90;;
11642;SDS011;5877;50.930;6.918;2022-07-10T02:58:37;2.47;;;0.90;;
11642;SDS011;5877;50.930;6.918;2022-07-10T03:01:26;5.10;;;1.30;;
11642;SDS011;5877;50.930;6.918;2022-07-10T03:04:13;4.03;;;1.40;;
11642;SDS011;5877;50.930;6.918;2022-07-10T03:07:01;5.03;;;1.30;;
11642;SDS011;5877;50.930;6.918;2022-07-10T03:09:48;6.57;;;1.40;;
11642;SDS011;5877;50.930;6.918;2022-07-10T03:12:36;3.17;;;1.50;;
11642;SDS011;5877;50.930;6.918;2022-07-10T03:15:23;5.13;;;1.97;;
11642;SDS011;5877;50.930;6.918;2022-07-10T03:18:11;5.57;;;1.07;;
11642;SDS011;5877;50.930;6.918;2022-07-10T03:20:58;6.27;;;1.23;;
11642;SDS011;5877;50.930;6.918;2022-07-10T03:23:46;3.83;;;1.13;;
11642;SDS011;5877;50.930;6.918;2022-07-10T03:26:33;5.43;;;1.30;;
11642;SDS011;5877;50.930;6.918;2022-07-10T03:29:20;3.57;;;1.20;;
11642;SDS011;5877;50.930;6.918;2022-07-10T03:32:09;5.20;;;1.17;;
11642;SDS011;5877;50.930;6.918;2022-07-10T03:34:56;5.57;;;1.30;;
11642;SDS011;5877;50.930;6.918;2022-07-10T03:37:44;3.73;;;1.10;;
11642;SDS011;5877;50.930;6.918;2022-07-10T03:40:31;6.13;;;1.50;;
11642;SDS011;5877;50.930;6.918;2022-07-10T03:43:19;3.80;;;1.33;;
11642;SDS011;5877;50.930;6.918;2022-07-10T03:46:06;4.80;;;1.37;;
11642;SDS011;5877;50.930;6.918;2022-07-10T03:48:54;5.07;;;1.40;;
11642;SDS011;5877;50.930;6.918;2022-07-10T03:51:41;2.37;;;1.20;;
11642;SDS011;5877;50.930;6.918;2022-07-10T03:54:29;5.60;;;1.10;;
11642;SDS011;5877;50.930;6.918;2022-07-10T03:57:17;4.43;;;1.30;;
11642;SDS011;5877;50.930;6.918;2022-07-10T04:00:26;6.10;;;1.20;;
11642;SDS011;5877;50.930;6.918;2022-07-10T04:03:14;2.60;;;1.10;;
11642;SDS011;5877;50.930;6.918;2022-07-10T04:06:01;5.10;;;1.57;;
11642;SDS011;5877;50.930;6.918;2022-07-10T04:08:49;8.60;;;1.50;;
11642;SDS011;5877;50.930;6.918;2022-07-10T04:11:36;4.97;;;1.30;;
11642;SDS011;5877;50.930;6.918;2022-07-10T04:14:23;3.50;;;1.27;;
11642;SDS011;5877;50.930;6.918;2022-07-10T04:17:13;4.80;;;1.17;;
11642;SDS011;5877;50.930;6.918;2022-07-10T04:20:01;6.83;;;1.23;;
11642;SDS011;5877;50.930;6.918;2022-07-10T04:22:49;3.67;;;1.40;;
11642;SDS011;5877;50.930;6.918;2022-07-10T04:25:37;5.50;;;1.57;;
11642;SDS011;5877;50.930;6.918;2022-07-10T04:28:24;5.53;;;1.50;;
11642;SDS011;5877;50.930;6.918;2022-07-10T04:31:11;3.60;;;1.43;;
11642;SDS011;5877;50.930;6.918;2022-07-10T04:33:59;3.17;;;1.50;;
11642;SDS011;5877;50.930;6.918;2022-07-10T04:36:46;4.20;;;1.60;;
11642;SDS011;5877;50.930;6.918;2022-07-10T04:39:34;4.27;;;1.70;;
11642;SDS011;5877;50.930;6.918;2022-07-10T04:42:22;3.07;;;1.50;;
11642;SDS011;5877;50.930;6.918;2022-07-10T04:45:10;5.27;;;1.60;;
11642;SDS011;5877;50.930;6.918;2022-07-10T04:47:58;4.53;;;1.60;;
11642;SDS011;5877;50.930;6.918;2022-07-10T04:50:45;5.47;;;1.43;;
11642;SDS011;5877;50.930;6.918;2022-07-10T04:53:32;3.30;;;1.20;;
11642;SDS011;5877;50.930;6.918;2022-07-10T04:56:20;2.37;;;1.30;;
11642;SDS011;5877;50.930;6.918;2022-07-10T04:59:07;7.27;;;1.40;;
11642;SDS011;5877;50.930;6.918;2022-07-10T05:01:56;3.47;;;1.40;;
11642;SDS011;5877;50.930;6.918;2022-07-10T05:04:43;4.67;;;1.33;;
11642;SDS011;5877;50.930;6.918;2022-07-10T05:07:31;2.30;;;1.30;;
11642;SDS011;5877;50.930;6.918;2022-07-10T05:10:19;2.77;;;1.30;;
11642;SDS011;5877;50.930;6.918;2022-07-10T05:13:06;4.87;;;1.37;;
11642;SDS011;5877;50.930;6.918;2022-07-10T05:15:53;4.17;;;1.43;;
11642;SDS011;5877;50.930;6.918;2022-07-10T05:18:41;3.23;;;1.50;;
11642;SDS011;5877;50.930;6.918;2022-07-10T05:21:29;3.80;;;1.00;;
11642;SDS011;5877;50.930;6.918;2022-07-10T05:24:17;2.57;;;1.10;;
11642;SDS011;5877;50.930;6.918;2022-07-10T05:27:04;4.63;;;2.17;;
11642;SDS011;5877;50.930;6.918;2022-07-10T05:29:52;8.17;;;6.43;;
11642;SDS011;5877;50.930;6.918;2022-07-10T05:32:43;7.30;;;3.40;;
11642;SDS011;5877;50.930;6.918;2022-07-10T05:35:31;5.32;;;1.83;;
11642;SDS011;5877;50.930;6.918;2022-07-10T05:38:19;6.00;;;1.80;;
11642;SDS011;5877;50.930;6.918;2022-07-10T05:41:06;4.35;;;1.40;;
11642;SDS011;5877;50.930;6.918;2022-07-10T05:43:54;4.35;;;1.33;;
11642;SDS011;5877;50.930;6.918;2022-07-10T05:46:42;2.88;;;1.20;;
11642;SDS011;5877;50.930;6.918;2022-07-10T05:49:30;5.63;;;1.23;;
11642;SDS011;5877;50.930;6.918;2022-07-10T05:52:19;2.92;;;1.10;;
11642;SDS011;5877;50.930;6.918;2022-07-10T05:55:06;4.32;;;1.63;;
11642;SDS011;5877;50.930;6.918;2022-07-10T05:57:55;2.47;;;1.10;;
11642;SDS011;5877;50.930;6.918;2022-07-10T06:00:42;4.70;;;1.23;;
11642;SDS011;5877;50.930;6.918;2022-07-10T06:03:30;3.22;;;1.08;;
11642;SDS011;5877;50.930;6.918;2022-07-10T06:06:18;3.33;;;1.02;;
11642;SDS011;5877;50.930;6.918;2022-07-10T06:09:05;3.22;;;1.05;;
11642;SDS011;5877;50.930;6.918;2022-07-10T06:11:53;5.43;;;1.38;;
11642;SDS011;5877;50.930;6.918;2022-07-10T06:14:41;3.85;;;1.20;;
11642;SDS011;5877;50.930;6.918;2022-07-10T06:17:29;3.55;;;1.27;;
11642;SDS011;5877;50.930;6.918;2022-07-10T06:20:17;2.50;;;1.20;;
11642;SDS011;5877;50.930;6.918;2022-07-10T06:23:04;4.50;;;1.50;;
11642;SDS011;5877;50.930;6.918;2022-07-10T06:25:52;4.93;;;1.40;;
11642;SDS011;5877;50.930;6.918;2022-07-10T06:28:39;4.53;;;1.70;;
11642;SDS011;5877;50.930;6.918;2022-07-10T06:31:27;3.60;;;1.30;;
11642;SDS011;5877;50.930;6.918;2022-07-10T06:34:15;3.77;;;1.37;;
11642;SDS011;5877;50.930;6.918;2022-07-10T06:37:03;5.50;;;1.80;;
11642;SDS011;5877;50.930;6.918;2022-07-10T06:39:50;3.30;;;1.20;;
11642;SDS011;5877;50.930;6.918;2022-07-10T06:42:37;4.57;;;1.17;;
11642;SDS011;5877;50.930;6.918;2022-07-10T06:45:31;5.53;;;1.43;;
11642;SDS011;5877;50.930;6.918;2022-07-10T06:48:37;3.27;;;1.13;;
11642;SDS011;5877;50.930;6.918;2022-07-10T06:51:28;4.50;;;1.33;;
11642;SDS011;5877;50.930;6.918;2022-07-10T06:54:17;4.57;;;1.30;;
11642;SDS011;5877;50.930;6.918;2022-07-10T06:57:19;4.80;;;1.50;;
11642;SDS011;5877;50.930;6.918;2022-07-10T07:00:07;4.87;;;1.67;;
11642;SDS011;5877;50.930;6.918;2022-07-10T07:02:56;5.97;;;1.80;;
11642;SDS011;5877;50.930;6.918;2022-07-10T07:05:44;3.53;;;1.70;;
11642;SDS011;5877;50.930;6.918;2022-07-10T07:08:31;4.83;;;1.83;;
11642;SDS011;5877;50.930;6.918;2022-07-10T07:11:19;6.73;;;1.97;;
11642;SDS011;5877;50.930;6.918;2022-07-10T07:14:07;4.47;;;1.70;;
11642;SDS011;5877;50.930;6.918;2022-07-10T07:16:54;4.13;;;1.80;;
11642;SDS011;5877;50.930;6.918;2022-07-10T07:19:46;5.40;;;1.97;;
11642;SDS011;5877;50.930;6.918;2022-07-10T07:22:52;5.77;;;1.90;;
11642;SDS011;5877;50.930;6.918;2022-07-10T07:25:58;5.70;;;1.50;;
11642;SDS011;5877;50.930;6.918;2022-07-10T07:28:45;4.00;;;1.83;;
11642;SDS011;5877;50.930;6.918;2022-07-10T07:31:35;4.53;;;1.80;;
11642;SDS011;5877;50.930;6.918;2022-07-10T07:34:26;3.37;;;1.93;;
11642;SDS011;5877;50.930;6.918;2022-07-10T07:37:14;7.30;;;2.53;;
11642;SDS011;5877;50.930;6.918;2022-07-10T07:40:02;5.30;;;1.67;;
11642;SDS011;5877;50.930;6.918;2022-07-10T07:42:50;5.17;;;1.70;;
11642;SDS011;5877;50.930;6.918;2022-07-10T07:45:40;4.97;;;2.13;;
11642;SDS011;5877;50.930;6.918;2022-07-10T07:48:27;5.67;;;2.20;;
11642;SDS011;5877;50.930;6.918;2022-07-10T07:51:15;4.13;;;1.80;;
11642;SDS011;5877;50.930;6.918;2022-07-10T07:54:02;6.30;;;1.93;;
11642;SDS011;5877;50.930;6.918;2022-07-10T07:56:50;4.33;;;1.57;;
11642;SDS011;5877;50.930;6.918;2022-07-10T07:59:37;4.27;;;1.70;;
11642;SDS011;5877;50.930;6.918;2022-07-10T08:02:26;3.90;;;1.63;;
11642;SDS011;5877;50.930;6.918;2022-07-10T08:05:13;3.23;;;1.60;;
11642;SDS011;5877;50.930;6.918;2022-07-10T08:11:50;3.50;;;1.70;;
11642;SDS011;5877;50.930;6.918;2022-07-10T08:14:38;5.57;;;1.70;;
11642;SDS011;5877;50.930;6.918;2022-07-10T08:17:26;4.20;;;1.57;;
11642;SDS011;5877;50.930;6.918;2022-07-10T08:20:13;3.60;;;1.53;;
11642;SDS011;5877;50.930;6.918;2022-07-10T08:23:01;5.30;;;1.67;;
11642;SDS011;5877;50.930;6.918;2022-07-10T08:25:48;5.97;;;1.97;;
11642;SDS011;5877;50.930;6.918;2022-07-10T08:28:36;4.43;;;2.37;;
11642;SDS011;5877;50.930;6.918;2022-07-10T08:31:24;3.60;;;2.50;;
11642;SDS011;5877;50.930;6.918;2022-07-10T08:34:11;6.13;;;2.23;;
11642;SDS011;5877;50.930;6.918;2022-07-10T08:36:59;5.83;;;1.77;;
11642;SDS011;5877;50.930;6.918;2022-07-10T08:39:46;5.13;;;1.87;;
11642;SDS011;5877;50.930;6.918;2022-07-10T08:42:34;2.83;;;1.73;;
11642;SDS011;5877;50.930;6.918;2022-07-10T08:45:22;3.20;;;1.73;;
11642;SDS011;5877;50.930;6.918;2022-07-10T08:48:12;5.00;;;1.77;;
11642;SDS011;5877;50.930;6.918;2022-07-10T08:51:03;6.60;;;1.73;;
11642;SDS011;5877;50.930;6.918;2022-07-10T08:53:52;5.63;;;2.10;;
11642;SDS011;5877;50.930;6.918;2022-07-10T08:56:41;4.90;;;1.83;;
11642;SDS011;5877;50.930;6.918;2022-07-10T08:59:29;5.40;;;1.70;;
11642;SDS011;5877;50.930;6.918;2022-07-10T09:02:18;3.20;;;1.67;;
11642;SDS011;5877;50.930;6.918;2022-07-10T09:05:06;2.97;;;1.33;;
11642;SDS011;5877;50.930;6.918;2022-07-10T09:07:55;2.87;;;1.57;;
11642;SDS011;5877;50.930;6.918;2022-07-10T09:10:43;5.10;;;1.33;;
11642;SDS011;5877;50.930;6.918;2022-07-10T09:13:31;4.90;;;1.77;;
11642;SDS011;5877;50.930;6.918;2022-07-10T09:16:38;4.03;;;1.40;;
11642;SDS011;5877;50.930;6.918;2022-07-10T09:19:27;3.67;;;1.20;;
11642;SDS011;5877;50.930;6.918;2022-07-10T09:22:15;4.53;;;1.70;;
11642;SDS011;5877;50.930;6.918;2022-07-10T09:25:11;4.40;;;1.10;;
11642;SDS011;5877;50.930;6.918;2022-07-10T09:27:59;4.00;;;1.10;;
11642;SDS011;5877;50.930;6.918;2022-07-10T09:30:52;3.73;;;1.50;;
11642;SDS011;5877;50.930;6.918;2022-07-10T09:33:39;5.53;;;1.17;;
11642;SDS011;5877;50.930;6.918;2022-07-10T09:36:27;2.07;;;1.20;;
11642;SDS011;5877;50.930;6.918;2022-07-10T09:39:21;3.47;;;1.23;;
11642;SDS011;5877;50.930;6.918;2022-07-10T09:42:08;2.40;;;1.00;;
11642;SDS011;5877;50.930;6.918;2022-07-10T09:45:14;3.60;;;1.30;;
11642;SDS011;5877;50.930;6.918;2022-07-10T09:48:03;2.57;;;1.13;;
11642;SDS011;5877;50.930;6.918;2022-07-10T09:50:52;3.70;;;1.10;;
11642;SDS011;5877;50.930;6.918;2022-07-10T09:53:43;3.57;;;1.37;;
11642;SDS011;5877;50.930;6.918;2022-07-10T09:56:41;2.73;;;1.20;;
11642;SDS011;5877;50.930;6.918;2022-07-10T09:59:30;2.03;;;0.97;;
11642;SDS011;5877;50.930;6.918;2022-07-10T10:02:18;3.77;;;1.20;;
11642;SDS011;5877;50.930;6.918;2022-07-10T10:05:07;3.90;;;1.47;;
11642;SDS011;5877;50.930;6.918;2022-07-10T10:07:55;3.50;;;1.50;;
11642;SDS011;5877;50.930;6.918;2022-07-10T10:10:44;2.80;;;1.20;;
11642;SDS011;5877;50.930;6.918;2022-07-10T10:13:34;3.37;;;1.00;;
11642;SDS011;5877;50.930;6.918;2022-07-10T10:16:22;2.80;;;1.00;;
11642;SDS011;5877;50.930;6.918;2022-07-10T10:19:15;4.00;;;1.50;;
11642;SDS011;5877;50.930;6.918;2022-07-10T10:22:22;2.63;;;1.30;;
11642;SDS011;5877;50.930;6.918;2022-07-10T10:25:11;2.83;;;1.63;;
11642;SDS011;5877;50.930;6.918;2022-07-10T10:28:01;2.40;;;1.03;;
11642;SDS011;5877;50.930;6.918;2022-07-10T10:30:52;4.23;;;1.47;;
11642;SDS011;5877;50.930;6.918;2022-07-10T10:33:42;5.33;;;1.77;;
11642;SDS011;5877;50.930;6.918;2022-07-10T10:39:31;4.50;;;1.50;;
11642;SDS011;5877;50.930;6.918;2022-07-10T10:42:45;6.57;;;2.10;;
11642;SDS011;5877;50.930;6.918;2022-07-10T10:45:43;4.27;;;1.50;;
11642;SDS011;5877;50.930;6.918;2022-07-10T10:48:31;7.93;;;2.00;;
11642;SDS011;5877;50.930;6.918;2022-07-10T10:51:24;5.07;;;1.90;;
11642;SDS011;5877;50.930;6.918;2022-07-10T11:00:44;5.43;;;2.10;;
11642;SDS011;5877;50.930;6.918;2022-07-10T11:03:32;3.90;;;1.73;;
11642;SDS011;5877;50.930;6.918;2022-07-10T11:06:38;3.90;;;1.57;;
11642;SDS011;5877;50.930;6.918;2022-07-10T11:09:33;3.43;;;1.50;;
11642;SDS011;5877;50.930;6.918;2022-07-10T11:12:22;2.60;;;1.33;;
11642;SDS011;5877;50.930;6.918;2022-07-10T11:15:13;1.97;;;1.07;;
11642;SDS011;5877;50.930;6.918;2022-07-10T11:21:02;3.13;;;1.33;;
11642;SDS011;5877;50.930;6.918;2022-07-10T11:26:52;2.23;;;1.60;;
11642;SDS011;5877;50.930;6.918;2022-07-10T11:29:40;3.40;;;1.73;;
11642;SDS011;5877;50.930;6.918;2022-07-10T11:32:28;4.00;;;1.87;;
11642;SDS011;5877;50.930;6.918;2022-07-10T11:35:16;3.40;;;1.70;;
11642;SDS011;5877;50.930;6.918;2022-07-10T11:38:04;3.50;;;1.63;;
11642;SDS011;5877;50.930;6.918;2022-07-10T11:40:52;4.37;;;1.23;;
11642;SDS011;5877;50.930;6.918;2022-07-10T11:43:57;3.50;;;1.73;;
11642;SDS011;5877;50.930;6.918;2022-07-10T11:46:46;2.70;;;1.63;;
11642;SDS011;5877;50.930;6.918;2022-07-10T11:49:43;1.67;;;1.00;;
11642;SDS011;5877;50.930;6.918;2022-07-10T11:52:35;2.30;;;1.10;;
11642;SDS011;5877;50.930;6.918;2022-07-10T11:55:23;1.60;;;0.90;;
11642;SDS011;5877;50.930;6.918;2022-07-10T11:58:17;2.10;;;1.33;;
11642;SDS011;5877;50.930;6.918;2022-07-10T12:01:05;1.60;;;1.20;;
11642;SDS011;5877;50.930;6.918;2022-07-10T12:04:00;3.40;;;1.77;;
11642;SDS011;5877;50.930;6.918;2022-07-10T12:06:49;2.60;;;1.60;;
11642;SDS011;5877;50.930;6.918;2022-07-10T12:09:38;3.07;;;1.40;;
11642;SDS011;5877;50.930;6.918;2022-07-10T12:12:26;1.97;;;1.10;;
11642;SDS011;5877;50.930;6.918;2022-07-10T12:15:30;4.40;;;1.17;;
11642;SDS011;5877;50.930;6.918;2022-07-10T12:18:25;2.60;;;1.43;;
11642;SDS011;5877;50.930;6.918;2022-07-10T12:21:16;4.03;;;1.60;;
11642;SDS011;5877;50.930;6.918;2022-07-10T12:24:04;3.00;;;1.40;;
11642;SDS011;5877;50.930;6.918;2022-07-10T12:26:52;2.83;;;1.43;;
11642;SDS011;5877;50.930;6.918;2022-07-10T12:29:43;2.13;;;1.33;;
11642;SDS011;5877;50.930;6.918;2022-07-10T12:32:31;3.43;;;1.40;;
11642;SDS011;5877;50.930;6.918;2022-07-10T12:35:19;1.83;;;1.23;;
11642;SDS011;5877;50.930;6.918;2022-07-10T12:38:14;4.07;;;1.50;;
11642;SDS011;5877;50.930;6.918;2022-07-10T12:41:12;2.07;;;1.20;;
11642;SDS011;5877;50.930;6.918;2022-07-10T12:44:00;3.70;;;1.37;;
11642;SDS011;5877;50.930;6.918;2022-07-10T12:46:59;4.97;;;1.40;;
11642;SDS011;5877;50.930;6.918;2022-07-10T12:49:57;3.37;;;1.53;;
11642;SDS011;5877;50.930;6.918;2022-07-10T12:52:50;5.10;;;2.07;;
11642;SDS011;5877;50.930;6.918;2022-07-10T12:55:54;2.50;;;1.40;;
11642;SDS011;5877;50.930;6.918;2022-07-10T12:58:45;5.00;;;2.30;;
11642;SDS011;5877;50.930;6.918;2022-07-10T13:01:40;4.10;;;1.70;;
11642;SDS011;5877;50.930;6.918;2022-07-10T13:04:29;3.63;;;1.93;;
11642;SDS011;5877;50.930;6.918;2022-07-10T13:07:17;4.07;;;1.63;;
11642;SDS011;5877;50.930;6.918;2022-07-10T13:10:06;3.53;;;1.70;;
11642;SDS011;5877;50.930;6.918;2022-07-10T13:12:54;6.07;;;1.80;;
11642;SDS011;5877;50.930;6.918;2022-07-10T13:15:45;5.90;;;2.23;;
11642;SDS011;5877;50.930;6.918;2022-07-10T13:18:36;4.07;;;2.00;;
11642;SDS011;5877;50.930;6.918;2022-07-10T13:21:25;4.33;;;1.93;;
11642;SDS011;5877;50.930;6.918;2022-07-10T13:24:13;3.43;;;2.10;;
11642;SDS011;5877;50.930;6.918;2022-07-10T13:27:01;5.00;;;2.10;;
11642;SDS011;5877;50.930;6.918;2022-07-10T13:29:49;3.43;;;1.57;;
11642;SDS011;5877;50.930;6.918;2022-07-10T13:32:37;4.07;;;1.57;;
11642;SDS011;5877;50.930;6.918;2022-07-10T13:35:28;2.83;;;1.70;;
11642;SDS011;5877;50.930;6.918;2022-07-10T13:38:17;5.03;;;2.57;;
11642;SDS011;5877;50.930;6.918;2022-07-10T13:41:05;4.00;;;1.87;;
11642;SDS011;5877;50.930;6.918;2022-07-10T13:43:53;6.07;;;2.67;;
11642;SDS011;5877;50.930;6.918;2022-07-10T13:46:40;7.50;;;3.03;;
11642;SDS011;5877;50.930;6.918;2022-07-10T13:49:29;6.17;;;3.00;;
11642;SDS011;5877;50.930;6.918;2022-07-10T13:52:17;4.23;;;1.97;;
11642;SDS011;5877;50.930;6.918;2022-07-10T13:55:04;4.57;;;1.80;;
11642;SDS011;5877;50.930;6.918;2022-07-10T13:57:53;3.40;;;1.43;;
11642;SDS011;5877;50.930;6.918;2022-07-10T14:00:41;2.93;;;1.57;;
11642;SDS011;5877;50.930;6.918;2022-07-10T14:03:29;2.17;;;1.30;;
11642;SDS011;5877;50.930;6.918;2022-07-10T14:06:18;4.27;;;2.00;;
11642;SDS011;5877;50.930;6.918;2022-07-10T14:09:07;3.33;;;1.83;;
11642;SDS011;5877;50.930;6.918;2022-07-10T14:11:55;3.43;;;1.30;;
11642;SDS011;5877;50.930;6.918;2022-07-10T14:14:43;4.23;;;1.70;;
11642;SDS011;5877;50.930;6.918;2022-07-10T14:17:34;4.53;;;1.60;;
11642;SDS011;5877;50.930;6.918;2022-07-10T14:20:21;2.77;;;1.70;;
11642;SDS011;5877;50.930;6.918;2022-07-10T14:23:10;5.97;;;1.77;;
11642;SDS011;5877;50.930;6.918;2022-07-10T14:25:57;8.70;;;1.60;;
11642;SDS011;5877;50.930;6.918;2022-07-10T14:28:45;4.17;;;1.67;;
11642;SDS011;5877;50.930;6.918;2022-07-10T14:31:34;5.87;;;1.83;;
11642;SDS011;5877;50.930;6.918;2022-07-10T14:34:21;4.13;;;1.60;;
11642;SDS011;5877;50.930;6.918;2022-07-10T14:37:12;4.70;;;1.63;;
11642;SDS011;5877;50.930;6.918;2022-07-10T14:40:00;2.90;;;1.50;;
11642;SDS011;5877;50.930;6.918;2022-07-10T14:42:47;4.40;;;1.97;;
11642;SDS011;5877;50.930;6.918;2022-07-10T14:45:40;6.83;;;2.47;;
11642;SDS011;5877;50.930;6.918;2022-07-10T14:48:46;5.83;;;1.93;;
11642;SDS011;5877;50.930;6.918;2022-07-10T14:51:33;4.47;;;1.67;;
11642;SDS011;5877;50.930;6.918;2022-07-10T14:54:22;3.83;;;1.70;;
11642;SDS011;5877;50.930;6.918;2022-07-10T14:57:11;4.07;;;2.10;;
11642;SDS011;5877;50.930;6.918;2022-07-10T15:00:00;4.53;;;1.50;;
11642;SDS011;5877;50.930;6.918;2022-07-10T15:02:47;3.87;;;1.63;;
11642;SDS011;5877;50.930;6.918;2022-07-10T15:05:35;3.97;;;1.70;;
11642;SDS011;5877;50.930;6.918;2022-07-10T15:08:23;2.60;;;1.77;;
11642;SDS011;5877;50.930;6.918;2022-07-10T15:11:11;3.17;;;1.73;;
11642;SDS011;5877;50.930;6.918;2022-07-10T15:14:04;4.43;;;1.83;;
11642;SDS011;5877;50.930;6.918;2022-07-10T15:16:52;5.60;;;2.43;;
11642;SDS011;5877;50.930;6.918;2022-07-10T15:19:40;4.10;;;1.90;;
11642;SDS011;5877;50.930;6.918;2022-07-10T15:22:27;3.63;;;2.30;;
11642;SDS011;5877;50.930;6.918;2022-07-10T15:25:15;4.87;;;2.60;;
11642;SDS011;5877;50.930;6.918;2022-07-10T15:28:03;4.87;;;2.60;;
11642;SDS011;5877;50.930;6.918;2022-07-10T15:30:52;6.17;;;2.60;;
11642;SDS011;5877;50.930;6.918;2022-07-10T15:33:39;3.10;;;1.83;;
11642;SDS011;5877;50.930;6.918;2022-07-10T15:36:33;5.40;;;2.17;;
11642;SDS011;5877;50.930;6.918;2022-07-10T15:39:20;5.80;;;1.67;;
11642;SDS011;5877;50.930;6.918;2022-07-10T15:42:09;4.07;;;2.20;;
11642;SDS011;5877;50.930;6.918;2022-07-10T15:44:57;6.60;;;1.83;;
11642;SDS011;5877;50.930;6.918;2022-07-10T15:47:45;2.50;;;1.43;;
11642;SDS011;5877;50.930;6.918;2022-07-10T15:50:32;3.57;;;2.00;;
11642;SDS011;5877;50.930;6.918;2022-07-10T15:53:21;5.67;;;2.33;;
11642;SDS011;5877;50.930;6.918;2022-07-10T15:56:09;3.77;;;2.17;;
11642;SDS011;5877;50.930;6.918;2022-07-10T15:58:56;3.43;;;2.47;;
11642;SDS011;5877;50.930;6.918;2022-07-10T16:01:44;3.33;;;1.60;;
11642;SDS011;5877;50.930;6.918;2022-07-10T16:04:31;4.20;;;2.40;;
11642;SDS011;5877;50.930;6.918;2022-07-10T16:07:19;4.63;;;1.70;;
11642;SDS011;5877;50.930;6.918;2022-07-10T16:10:07;3.97;;;2.00;;
11642;SDS011;5877;50.930;6.918;2022-07-10T16:12:56;6.43;;;2.30;;
11642;SDS011;5877;50.930;6.918;2022-07-10T16:15:44;4.57;;;2.40;;
11642;SDS011;5877;50.930;6.918;2022-07-10T16:18:31;5.13;;;2.30;;
11642;SDS011;5877;50.930;6.918;2022-07-10T16:21:20;3.07;;;2.20;;
11642;SDS011;5877;50.930;6.918;2022-07-10T16:24:08;4.40;;;1.80;;
11642;SDS011;5877;50.930;6.918;2022-07-10T16:26:56;5.07;;;2.23;;
11642;SDS011;5877;50.930;6.918;2022-07-10T16:29:44;2.87;;;2.10;;
11642;SDS011;5877;50.930;6.918;2022-07-10T16:32:31;5.97;;;2.00;;
11642;SDS011;5877;50.930;6.918;2022-07-10T16:35:19;3.87;;;2.07;;
11642;SDS011;5877;50.930;6.918;2022-07-10T16:38:06;3.60;;;2.20;;
11642;SDS011;5877;50.930;6.918;2022-07-10T16:40:54;4.27;;;2.17;;
11642;SDS011;5877;50.930;6.918;2022-07-10T16:43:42;3.30;;;1.90;;
11642;SDS011;5877;50.930;6.918;2022-07-10T16:46:30;6.33;;;1.73;;
11642;SDS011;5877;50.930;6.918;2022-07-10T16:49:18;2.33;;;1.30;;
11642;SDS011;5877;50.930;6.918;2022-07-10T16:52:06;1.97;;;1.40;;
11642;SDS011;5877;50.930;6.918;2022-07-10T16:54:54;3.20;;;1.40;;
11642;SDS011;5877;50.930;6.918;2022-07-10T16:57:42;4.33;;;1.57;;
11642;SDS011;5877;50.930;6.918;2022-07-10T17:00:29;3.23;;;1.90;;
11642;SDS011;5877;50.930;6.918;2022-07-10T17:03:17;2.63;;;1.80;;
11642;SDS011;5877;50.930;6.918;2022-07-10T17:06:04;3.23;;;1.70;;
11642;SDS011;5877;50.930;6.918;2022-07-10T17:08:52;4.13;;;1.87;;
11642;SDS011;5877;50.930;6.918;2022-07-10T17:11:40;3.47;;;2.00;;
11642;SDS011;5877;50.930;6.918;2022-07-10T17:14:28;3.43;;;1.80;;
11642;SDS011;5877;50.930;6.918;2022-07-10T17:17:15;6.17;;;2.30;;
11642;SDS011;5877;50.930;6.918;2022-07-10T17:20:04;4.40;;;1.93;;
11642;SDS011;5877;50.930;6.918;2022-07-10T17:22:52;4.07;;;2.13;;
11642;SDS011;5877;50.930;6.918;2022-07-10T17:25:39;2.70;;;1.70;;
11642;SDS011;5877;50.930;6.918;2022-07-10T17:28:27;4.97;;;1.97;;
11642;SDS011;5877;50.930;6.918;2022-07-10T17:31:15;5.43;;;2.13;;
11642;SDS011;5877;50.930;6.918;2022-07-10T17:34:03;6.40;;;1.77;;